UAE2YA OMDB-EDDH
Flight info
| Callsign | UAE2YA |
|---|---|
| Flight time | N/A |
| Altitude | 38000 |
| Route | OMDB/30R ANVIX L223 TARDI N629 BOTAM Y855 LAKLU Q204 NALKI G652 TOKRA DCT ALROK DCT BOSOB DCT ITRUX Y511 PMA/N0485F400 Z712 WEJ L677 GESON Q777 RASDA DCT OTHON DCT VAXOS DCT RDS UL609 MES DCT EVIVI L863 OKANA DCT BABIT DCT ARSIN DCT DITIS DCT KILNU DCT ABGUS DCT DIRBO/N0462F230 T902 RARUP EDDH/23 |
| Aircraft | A359/H-SDE2E3GHIJ3J4J5LM1ORWXY/LB1D1 |
Departure
| Time | 2026-04-23 12:06 |
|---|---|
| Airport | Dubai International Airport (OMDB) |
Arrival
| Time | N/A |
|---|---|
| Airport | Hamburg Helmut Schmidt Airport (EDDH) |
| Time | Latitude | Longitude | Altitude | Speed | Heading |
|---|---|---|---|---|---|
| 2026-04-23 11:30 | 25.24885 | 55.36300 | 16 ft | 0 kts | 211° |
| 2026-04-23 11:48 | 25.24892 | 55.36304 | 16 ft | 3 kts | 211° |
| 2026-04-23 11:48 | 25.24910 | 55.36316 | 17 ft | 3 kts | 211° |
| 2026-04-23 11:48 | 25.24926 | 55.36329 | 16 ft | 3 kts | 229° |
| 2026-04-23 11:49 | 25.24937 | 55.36348 | 18 ft | 3 kts | 252° |
| 2026-04-23 11:49 | 25.24939 | 55.36370 | 19 ft | 3 kts | 276° |
| 2026-04-23 11:49 | 25.24935 | 55.36390 | 19 ft | 3 kts | 292° |
| 2026-04-23 11:49 | 25.24930 | 55.36402 | 18 ft | 0 kts | 301° |
| 2026-04-23 11:53 | 25.24932 | 55.36397 | 15 ft | 2 kts | 302° |
| 2026-04-23 11:53 | 25.24940 | 55.36384 | 18 ft | 4 kts | 302° |
| 2026-04-23 11:53 | 25.24961 | 55.36347 | 15 ft | 7 kts | 302° |
| 2026-04-23 11:53 | 25.24995 | 55.36288 | 15 ft | 12 kts | 302° |
| 2026-04-23 11:54 | 25.25045 | 55.36197 | 15 ft | 16 kts | 301° |
| 2026-04-23 11:54 | 25.25105 | 55.36090 | 15 ft | 17 kts | 302° |
| 2026-04-23 11:54 | 25.25171 | 55.35971 | 15 ft | 19 kts | 302° |
| 2026-04-23 11:54 | 25.25240 | 55.35847 | 15 ft | 19 kts | 301° |
| 2026-04-23 11:55 | 25.25310 | 55.35720 | 15 ft | 20 kts | 301° |
| 2026-04-23 11:55 | 25.25382 | 55.35589 | 15 ft | 20 kts | 301° |
| 2026-04-23 11:55 | 25.25455 | 55.35457 | 15 ft | 20 kts | 301° |
| 2026-04-23 11:55 | 25.25530 | 55.35322 | 15 ft | 21 kts | 301° |
| 2026-04-23 11:56 | 25.25601 | 55.35192 | 15 ft | 16 kts | 301° |
| 2026-04-23 11:56 | 25.25690 | 55.35165 | 16 ft | 14 kts | 31° |
| 2026-04-23 11:56 | 25.25777 | 55.35226 | 16 ft | 15 kts | 31° |
| 2026-04-23 11:56 | 25.25872 | 55.35289 | 16 ft | 16 kts | 30° |
| 2026-04-23 11:57 | 25.25945 | 55.35342 | 16 ft | 8 kts | 42° |
| 2026-04-23 11:57 | 25.25977 | 55.35391 | 16 ft | 9 kts | 62° |
| 2026-04-23 11:57 | 25.25996 | 55.35476 | 15 ft | 14 kts | 88° |
| 2026-04-23 11:57 | 25.25960 | 55.35583 | 15 ft | 16 kts | 120° |
| 2026-04-23 11:58 | 25.25900 | 55.35692 | 15 ft | 17 kts | 122° |
| 2026-04-23 11:58 | 25.25836 | 55.35806 | 15 ft | 18 kts | 122° |
| 2026-04-23 11:58 | 25.25768 | 55.35926 | 15 ft | 19 kts | 122° |
| 2026-04-23 11:58 | 25.25697 | 55.36051 | 15 ft | 20 kts | 122° |
| 2026-04-23 11:59 | 25.25625 | 55.36184 | 15 ft | 20 kts | 121° |
| 2026-04-23 11:59 | 25.25551 | 55.36321 | 15 ft | 21 kts | 122° |
| 2026-04-23 11:59 | 25.25471 | 55.36465 | 15 ft | 23 kts | 121° |
| 2026-04-23 11:59 | 25.25385 | 55.36617 | 15 ft | 24 kts | 122° |
| 2026-04-23 12:00 | 25.25297 | 55.36773 | 15 ft | 24 kts | 121° |
| 2026-04-23 12:00 | 25.25211 | 55.36934 | 15 ft | 25 kts | 121° |
| 2026-04-23 12:00 | 25.25122 | 55.37097 | 16 ft | 25 kts | 120° |
| 2026-04-23 12:00 | 25.25031 | 55.37263 | 16 ft | 25 kts | 121° |
| 2026-04-23 12:01 | 25.24939 | 55.37426 | 16 ft | 23 kts | 121° |
| 2026-04-23 12:01 | 25.24869 | 55.37552 | 16 ft | 16 kts | 121° |
| 2026-04-23 12:01 | 25.24812 | 55.37655 | 17 ft | 15 kts | 121° |
| 2026-04-23 12:01 | 25.24766 | 55.37740 | 18 ft | 11 kts | 121° |
| 2026-04-23 12:02 | 25.24725 | 55.37814 | 17 ft | 11 kts | 122° |
| 2026-04-23 12:02 | 25.24686 | 55.37882 | 17 ft | 11 kts | 122° |
| 2026-04-23 12:02 | 25.24668 | 55.37933 | 17 ft | 4 kts | 86° |
| 2026-04-23 12:02 | 25.24682 | 55.37955 | 17 ft | 3 kts | 44° |
| 2026-04-23 12:03 | 25.24682 | 55.37956 | 17 ft | 0 kts | 44° |
| 2026-04-23 12:03 | 25.24683 | 55.37956 | 17 ft | 0 kts | 44° |
| 2026-04-23 12:03 | 25.24694 | 55.37967 | 17 ft | 5 kts | 40° |
| 2026-04-23 12:04 | 25.24728 | 55.37993 | 17 ft | 7 kts | 31° |
| 2026-04-23 12:04 | 25.24773 | 55.38022 | 17 ft | 8 kts | 24° |
| 2026-04-23 12:04 | 25.24815 | 55.38006 | 17 ft | 7 kts | 311° |
| 2026-04-23 12:04 | 25.24844 | 55.37959 | 17 ft | 9 kts | 303° |
| 2026-04-23 12:05 | 25.24922 | 55.37821 | 17 ft | 47 kts | 301° |
| 2026-04-23 12:05 | 25.25206 | 55.37310 | 16 ft | 107 kts | 301° |
| 2026-04-23 12:05 | 25.25685 | 55.36444 | 15 ft | 159 kts | 301° |
| 2026-04-23 12:05 | 25.26338 | 55.35302 | 351 ft | 180 kts | 303° |
| 2026-04-23 12:06 | 25.26964 | 55.34136 | 1042 ft | 176 kts | 304° |
| 2026-04-23 12:06 | 25.27583 | 55.32985 | 1724 ft | 173 kts | 305° |
| 2026-04-23 12:06 | 25.28851 | 55.30480 | 2468 ft | 203 kts | 297° |
| 2026-04-23 12:07 | 25.29187 | 55.28941 | 3004 ft | 210 kts | 269° |
| 2026-04-23 12:07 | 25.28709 | 55.27426 | 3554 ft | 212 kts | 239° |
| 2026-04-23 12:07 | 25.27982 | 55.25990 | 4130 ft | 217 kts | 245° |
| 2026-04-23 12:07 | 25.27393 | 55.24444 | 4705 ft | 219 kts | 247° |
| 2026-04-23 12:08 | 25.26773 | 55.22904 | 5295 ft | 219 kts | 242° |
| 2026-04-23 12:08 | 25.26031 | 55.21432 | 5908 ft | 219 kts | 236° |
| 2026-04-23 12:08 | 25.25032 | 55.20128 | 6306 ft | 229 kts | 219° |
| 2026-04-23 12:08 | 25.23596 | 55.19279 | 6633 ft | 244 kts | 195° |
| 2026-04-23 12:09 | 25.21861 | 55.19258 | 6960 ft | 261 kts | 166° |
| 2026-04-23 12:09 | 25.20288 | 55.20340 | 7347 ft | 279 kts | 133° |
| 2026-04-23 12:09 | 25.19160 | 55.22131 | 7845 ft | 288 kts | 127° |
| 2026-04-23 12:09 | 25.17961 | 55.23940 | 8377 ft | 294 kts | 131° |
| 2026-04-23 12:10 | 25.16664 | 55.25672 | 9182 ft | 292 kts | 133° |
| 2026-04-23 12:10 | 25.15344 | 55.27378 | 9906 ft | 293 kts | 134° |
| 2026-04-23 12:10 | 25.14005 | 55.29087 | 10575 ft | 295 kts | 134° |
| 2026-04-23 12:10 | 25.12649 | 55.30806 | 11215 ft | 299 kts | 135° |
| 2026-04-23 12:11 | 25.11287 | 55.32557 | 11868 ft | 303 kts | 132° |
| 2026-04-23 12:11 | 25.10173 | 55.34562 | 12508 ft | 310 kts | 120° |
| 2026-04-23 12:11 | 25.09254 | 55.36738 | 13150 ft | 315 kts | 118° |
| 2026-04-23 12:11 | 25.08355 | 55.38957 | 13773 ft | 319 kts | 118° |
| 2026-04-23 12:12 | 25.07445 | 55.41206 | 14327 ft | 324 kts | 117° |
| 2026-04-23 12:12 | 25.06545 | 55.43515 | 14678 ft | 335 kts | 116° |
| 2026-04-23 12:12 | 25.05608 | 55.45950 | 14789 ft | 356 kts | 116° |
| 2026-04-23 12:12 | 25.04609 | 55.48545 | 14792 ft | 378 kts | 116° |
| 2026-04-23 12:13 | 25.03553 | 55.51289 | 14785 ft | 398 kts | 116° |
| 2026-04-23 12:13 | 25.02446 | 55.54152 | 14781 ft | 410 kts | 116° |